Time;durP1;ratioP1;P1;durP2;ratioP2;P2;SDS_P1;SDS_P2;PMS_P1;PMS_P2;Temp;Humidity;BMP_temperature;BMP_pressure;BME280_temperature;BME280_humidity;BME280_pressure;Samples;Min_cycle;Max_cycle;Signal;HPM_P1;HPM_P2
2021/08/28 00:01:03;;;;;;;;;;;15.80;99.90;;;;;;1937939;74;20238;-73
2021/08/28 00:03:30;;;;;;;;;;;15.80;99.90;;;;;;1937934;74;20160;-72
2021/08/28 00:05:57;;;;;;;;;;;15.80;99.90;;;;;;1944536;72;20106;-73
2021/08/28 00:08:24;;;;;;;;;;;15.80;99.90;;;;;;1969687;73;20166;-72
2021/08/28 00:10:51;;;;;;;;;;;15.80;99.90;;;;;;1972338;73;20377;-72
2021/08/28 00:13:17;;;;;;;;;;;15.80;99.90;;;;;;1972183;73;20162;-74
2021/08/28 00:15:44;;;;;;;;;;;15.80;99.90;;;;;;1972288;73;20435;-72
2021/08/28 00:18:11;;;;;;;;;;;15.80;99.90;;;;;;1972359;73;20118;-72
2021/08/28 00:20:38;;;;;;;;;;;15.70;99.90;;;;;;1972119;73;20162;-73
2021/08/28 00:23:06;;;;;;;;;;;15.80;99.90;;;;;;1972251;73;20448;-72
2021/08/28 00:25:33;;;;;;;;;;;15.80;99.90;;;;;;1954714;73;20373;-73
2021/08/28 00:28:00;;;;;;;;;;;15.80;99.90;;;;;;1962736;73;20463;-73
2021/08/28 00:30:27;;;;;;;;;;;15.80;99.90;;;;;;1972082;72;20123;-72
2021/08/28 00:32:54;;;;;;;;;;;15.80;99.90;;;;;;1972298;73;20146;-73
2021/08/28 00:35:21;;;;;;;;;;;15.80;99.90;;;;;;1972281;72;20444;-72
2021/08/28 00:37:47;;;;;;;;;;;15.80;99.90;;;;;;1972238;73;20149;-73
2021/08/28 00:40:14;;;;;;;;;;;15.80;99.90;;;;;;1972259;73;20472;-73
2021/08/28 00:42:49;;;;;;;;;;;15.90;99.90;;;;;;1972137;73;20220;-73
2021/08/28 00:45:16;;;;;;;;;;;15.80;99.90;;;;;;1972229;73;20196;-72
2021/08/28 00:47:44;;;;;;;;;;;15.90;99.90;;;;;;1972281;73;20294;-73
2021/08/28 00:50:11;;;;;;;;;;;15.90;99.90;;;;;;1971569;73;20200;-73
2021/08/28 00:52:37;;;;;;;;;;;15.90;99.90;;;;;;1972223;73;20150;-73
2021/08/28 00:55:04;;;;;;;;;;;15.90;99.90;;;;;;1963043;72;20425;-73
2021/08/28 00:57:31;;;;;;;;;;;15.90;99.90;;;;;;1961175;71;20158;-73
2021/08/28 00:59:58;;;;;;;;;;;15.80;99.90;;;;;;1972269;73;20104;-73
2021/08/28 01:02:25;;;;;;;;;;;15.90;99.90;;;;;;1971916;73;20151;-73
2021/08/28 01:04:54;;;;;;;;;;;15.80;99.90;;;;;;1982191;72;20127;-73
2021/08/28 01:07:22;;;;;;;;;;;15.80;99.90;;;;;;1971070;73;20111;-73
2021/08/28 01:09:50;;;;;;;;;;;15.90;99.90;;;;;;1971996;73;20154;-74
2021/08/28 01:12:21;;;;;;;;;;;15.90;99.90;;;;;;1971569;72;20155;-73
2021/08/28 01:14:50;;;;;;;;;;;15.80;99.90;;;;;;1972262;73;20217;-74
2021/08/28 01:17:18;;;;;;;;;;;15.90;99.90;;;;;;1971828;73;20162;-73
2021/08/28 01:19:59;;;;;;;;;;;15.90;99.90;;;;;;1972291;73;20174;-74
2021/08/28 01:22:26;;;;;;;;;;;15.80;99.90;;;;;;1972208;73;20199;-73
2021/08/28 01:24:53;;;;;;;;;;;15.80;99.90;;;;;;1972453;73;20555;-73
2021/08/28 01:27:21;;;;;;;;;;;15.90;99.90;;;;;;1972265;73;20463;-73
2021/08/28 01:29:49;;;;;;;;;;;15.90;99.90;;;;;;1969717;73;20155;-72
2021/08/28 01:32:18;;;;;;;;;;;15.90;99.90;;;;;;1972166;73;20167;-73
2021/08/28 01:34:45;;;;;;;;;;;15.80;99.90;;;;;;1972284;73;20440;-73
2021/08/28 01:37:13;;;;;;;;;;;15.80;99.90;;;;;;1972152;73;20455;-73
2021/08/28 01:39:41;;;;;;;;;;;15.80;99.90;;;;;;1972309;73;20362;-72
2021/08/28 01:42:08;;;;;;;;;;;15.80;99.90;;;;;;1971988;73;20115;-74
2021/08/28 01:44:36;;;;;;;;;;;15.90;99.90;;;;;;1972258;73;20410;-74
2021/08/28 01:47:03;;;;;;;;;;;15.90;99.90;;;;;;1951826;73;20118;-73
2021/08/28 01:49:30;;;;;;;;;;;15.90;99.90;;;;;;1955184;73;20188;-73
2021/08/28 01:51:57;;;;;;;;;;;15.80;99.90;;;;;;1972917;73;20189;-72
2021/08/28 01:54:24;;;;;;;;;;;15.80;99.90;;;;;;1972783;73;20170;-73
2021/08/28 01:56:51;;;;;;;;;;;15.80;99.90;;;;;;1939035;72;20223;-72
2021/08/28 01:59:18;;;;;;;;;;;15.90;99.90;;;;;;1935906;74;20129;-71
2021/08/28 02:01:45;;;;;;;;;;;15.90;99.90;;;;;;1935720;74;20162;-72
2021/08/28 02:04:12;;;;;;;;;;;15.80;99.90;;;;;;1954898;71;20410;-72
2021/08/28 02:06:46;;;;;;;;;;;15.80;99.90;;;;;;1972156;73;20166;-73
2021/08/28 02:09:17;;;;;;;;;;;15.80;99.90;;;;;;1971720;73;20586;-73
2021/08/28 02:11:45;;;;;;;;;;;15.80;99.90;;;;;;1971204;73;20108;-73
2021/08/28 02:14:14;;;;;;;;;;;15.80;99.90;;;;;;1955790;72;20131;-72
2021/08/28 02:16:42;;;;;;;;;;;15.80;99.90;;;;;;1929322;73;20152;-73
2021/08/28 02:19:13;;;;;;;;;;;15.70;99.90;;;;;;1930479;74;20161;-73
2021/08/28 02:21:41;;;;;;;;;;;15.80;99.90;;;;;;1930507;74;20125;-73
2021/08/28 02:24:09;;;;;;;;;;;15.70;99.90;;;;;;1930330;73;20168;-73
2021/08/28 02:26:43;;;;;;;;;;;15.80;99.90;;;;;;1930518;72;20506;-73
2021/08/28 02:29:12;;;;;;;;;;;15.80;99.90;;;;;;1930059;74;20149;-73
2021/08/28 02:31:41;;;;;;;;;;;15.70;99.90;;;;;;1928580;74;20121;-74
2021/08/28 02:34:09;;;;;;;;;;;15.70;99.90;;;;;;1930060;74;20172;-74
2021/08/28 02:36:38;;;;;;;;;;;15.80;99.90;;;;;;1930551;74;20168;-74
2021/08/28 02:39:05;;;;;;;;;;;15.80;99.90;;;;;;1930424;74;20106;-72
2021/08/28 02:41:32;;;;;;;;;;;15.80;99.90;;;;;;1930531;74;20176;-73
2021/08/28 02:44:00;;;;;;;;;;;15.70;99.90;;;;;;1930382;73;20125;-72
2021/08/28 02:46:28;;;;;;;;;;;15.80;99.90;;;;;;1930535;74;20125;-73
2021/08/28 02:48:55;;;;;;;;;;;15.80;99.90;;;;;;1930322;74;20164;-72
2021/08/28 02:51:22;;;;;;;;;;;15.80;99.90;;;;;;1930341;74;20211;-72
2021/08/28 02:53:50;;;;;;;;;;;15.70;99.90;;;;;;1930219;74;20126;-72
2021/08/28 02:56:18;;;;;;;;;;;15.70;99.90;;;;;;1930305;73;20161;-72
2021/08/28 02:58:45;;;;;;;;;;;15.70;99.90;;;;;;1926460;74;20145;-74
2021/08/28 03:01:12;;;;;;;;;;;15.70;99.90;;;;;;1915815;75;20196;-74
2021/08/28 03:03:40;;;;;;;;;;;15.70;99.90;;;;;;1939823;74;20120;-73
2021/08/28 03:06:07;;;;;;;;;;;15.70;99.90;;;;;;1950083;74;20148;-73
2021/08/28 03:08:35;;;;;;;;;;;15.60;99.90;;;;;;1950032;74;20148;-73
2021/08/28 03:11:02;;;;;;;;;;;15.60;99.90;;;;;;1949862;74;20455;-73
2021/08/28 03:13:29;;;;;;;;;;;15.60;99.90;;;;;;1949747;74;20457;-73
2021/08/28 03:15:57;;;;;;;;;;;15.70;99.90;;;;;;1950071;74;20378;-73
2021/08/28 03:18:24;;;;;;;;;;;15.70;99.90;;;;;;1949861;74;20468;-73
2021/08/28 03:20:53;;;;;;;;;;;15.60;99.90;;;;;;1949648;74;20554;-73
2021/08/28 03:23:21;;;;;;;;;;;15.60;99.90;;;;;;1937451;74;20183;-73
2021/08/28 03:25:49;;;;;;;;;;;15.70;99.90;;;;;;1949661;74;20101;-73
2021/08/28 03:28:16;;;;;;;;;;;15.70;99.90;;;;;;1936596;74;20166;-73
2021/08/28 03:30:44;;;;;;;;;;;15.70;99.90;;;;;;1940768;74;20303;-74
2021/08/28 03:33:16;;;;;;;;;;;15.60;99.90;;;;;;1934034;74;20152;-74
2021/08/28 03:35:41;;;;;;;;;;;15.70;99.90;;;;;;1920963;74;20126;-73
2021/08/28 03:38:08;;;;;;;;;;;15.70;99.90;;;;;;1914302;74;20195;-73
2021/08/28 03:40:35;;;;;;;;;;;15.70;99.90;;;;;;1930607;74;20160;-73
2021/08/28 03:43:02;;;;;;;;;;;15.60;99.90;;;;;;1929380;74;20159;-72
2021/08/28 03:45:30;;;;;;;;;;;15.70;99.90;;;;;;1948249;72;20179;-73
2021/08/28 03:47:57;;;;;;;;;;;15.60;99.90;;;;;;1948376;74;20163;-71
2021/08/28 03:50:24;;;;;;;;;;;15.60;99.90;;;;;;1935425;74;20503;-74
2021/08/28 03:52:50;;;;;;;;;;;15.60;99.90;;;;;;1949747;74;20171;-73
2021/08/28 03:55:17;;;;;;;;;;;15.60;99.90;;;;;;1924118;74;20173;-73
2021/08/28 03:57:44;;;;;;;;;;;15.70;99.90;;;;;;1915928;75;20463;-73
2021/08/28 04:00:11;;;;;;;;;;;15.60;99.90;;;;;;1916024;75;20157;-74
2021/08/28 04:02:38;;;;;;;;;;;15.60;99.90;;;;;;1932196;74;20276;-73
2021/08/28 04:05:05;;;;;;;;;;;15.60;99.90;;;;;;1945113;74;20293;-72
2021/08/28 04:07:32;;;;;;;;;;;15.60;99.90;;;;;;1921855;74;20124;-74
2021/08/28 04:09:58;;;;;;;;;;;15.60;99.90;;;;;;1949729;74;20148;-73
2021/08/28 04:12:25;;;;;;;;;;;15.60;99.90;;;;;;1949650;74;20101;-72
2021/08/28 04:14:52;;;;;;;;;;;15.60;99.90;;;;;;1931205;74;20150;-73
2021/08/28 04:17:19;;;;;;;;;;;15.60;99.90;;;;;;1932148;74;20156;-73
2021/08/28 04:19:46;;;;;;;;;;;15.50;99.90;;;;;;1950104;74;20120;-72
2021/08/28 04:22:12;;;;;;;;;;;15.50;99.90;;;;;;1949638;74;20172;-73
2021/08/28 04:24:39;;;;;;;;;;;15.50;99.90;;;;;;1949801;74;20171;-73
2021/08/28 04:27:07;;;;;;;;;;;15.50;99.90;;;;;;1950107;74;20394;-73
2021/08/28 04:29:34;;;;;;;;;;;15.50;99.90;;;;;;1950028;74;20469;-73
2021/08/28 04:32:01;;;;;;;;;;;15.50;99.90;;;;;;1949755;74;20154;-74
2021/08/28 04:34:27;;;;;;;;;;;15.60;99.90;;;;;;1949975;74;20159;-73
2021/08/28 04:36:54;;;;;;;;;;;15.60;99.90;;;;;;1949802;74;20104;-73
2021/08/28 04:39:21;;;;;;;;;;;15.50;99.90;;;;;;1949893;74;20219;-73
2021/08/28 04:41:48;;;;;;;;;;;15.60;99.90;;;;;;1949756;74;20421;-72
2021/08/28 04:44:14;;;;;;;;;;;15.60;99.90;;;;;;1949739;74;20125;-72
2021/08/28 04:46:41;;;;;;;;;;;15.50;99.90;;;;;;1949915;74;20509;-73
2021/08/28 04:49:08;;;;;;;;;;;15.50;99.90;;;;;;1949793;74;20191;-73
2021/08/28 04:51:35;;;;;;;;;;;15.50;99.90;;;;;;1950121;74;20420;-73
2021/08/28 04:54:02;;;;;;;;;;;15.50;99.90;;;;;;1949565;74;20163;-72
2021/08/28 04:56:28;;;;;;;;;;;15.50;99.90;;;;;;1950139;74;20146;-72
2021/08/28 04:58:55;;;;;;;;;;;15.50;99.90;;;;;;1949735;74;20159;-73
2021/08/28 05:01:22;;;;;;;;;;;15.40;99.90;;;;;;1949676;74;20202;-73
2021/08/28 05:03:49;;;;;;;;;;;15.50;99.90;;;;;;1923491;72;20377;-69
2021/08/28 05:06:16;;;;;;;;;;;15.50;99.90;;;;;;1929272;73;20157;-69
2021/08/28 05:08:42;;;;;;;;;;;15.50;99.90;;;;;;1930872;74;20450;-69
2021/08/28 05:11:09;;;;;;;;;;;15.50;99.90;;;;;;1931392;74;20118;-69
2021/08/28 05:13:36;;;;;;;;;;;15.50;99.90;;;;;;1888825;75;20448;-69
2021/08/28 05:16:03;;;;;;;;;;;15.50;99.90;;;;;;1915060;74;20190;-69
2021/08/28 05:18:30;;;;;;;;;;;15.50;99.90;;;;;;1886182;76;20394;-69
2021/08/28 05:20:56;;;;;;;;;;;15.50;99.90;;;;;;1885993;76;20171;-69
2021/08/28 05:23:23;;;;;;;;;;;15.50;99.90;;;;;;1886086;76;20128;-69
2021/08/28 05:25:50;;;;;;;;;;;15.50;99.90;;;;;;1913788;74;20120;-70
2021/08/28 05:28:17;;;;;;;;;;;15.50;99.90;;;;;;1918241;75;20220;-70
2021/08/28 05:30:44;;;;;;;;;;;15.60;99.90;;;;;;1918980;75;20122;-69
2021/08/28 05:33:10;;;;;;;;;;;15.60;99.90;;;;;;1918988;75;20164;-70
2021/08/28 05:35:37;;;;;;;;;;;15.60;99.90;;;;;;1894708;75;20175;-69
2021/08/28 05:38:04;;;;;;;;;;;15.60;99.90;;;;;;1886241;76;20197;-69
2021/08/28 05:40:31;;;;;;;;;;;15.60;99.90;;;;;;1852658;76;20174;-69
2021/08/28 05:42:58;;;;;;;;;;;15.60;99.90;;;;;;1886165;76;20183;-69
2021/08/28 05:45:24;;;;;;;;;;;15.60;99.90;;;;;;1864034;76;20126;-69
2021/08/28 05:47:51;;;;;;;;;;;15.60;99.90;;;;;;1886165;74;20180;-69
2021/08/28 05:50:18;;;;;;;;;;;15.70;99.90;;;;;;1854482;77;20168;-69
2021/08/28 05:52:45;;;;;;;;;;;15.60;99.90;;;;;;1850551;77;20300;-69
2021/08/28 05:55:14;;;;;;;;;;;15.60;99.90;;;;;;1918420;73;20454;-69
2021/08/28 05:57:42;;;;;;;;;;;15.70;99.90;;;;;;1916861;75;20192;-70
2021/08/28 06:00:09;;;;;;;;;;;15.70;99.90;;;;;;1916533;75;20120;-69
2021/08/28 06:02:36;;;;;;;;;;;15.80;99.90;;;;;;1916643;75;20165;-69
2021/08/28 06:05:07;;;;;;;;;;;15.80;99.90;;;;;;1918634;73;20221;-69
2021/08/28 06:07:34;;;;;;;;;;;15.80;99.90;;;;;;1916910;75;20169;-69
2021/08/28 06:10:01;;;;;;;;;;;15.80;99.90;;;;;;1917068;75;20134;-70
2021/08/28 06:12:28;;;;;;;;;;;15.80;99.90;;;;;;1916852;75;20431;-70
2021/08/28 06:14:54;;;;;;;;;;;15.80;99.90;;;;;;1932416;73;20202;-70
2021/08/28 06:17:21;;;;;;;;;;;15.80;99.90;;;;;;1957652;73;20374;-70
2021/08/28 06:19:48;;;;;;;;;;;15.90;99.90;;;;;;1957794;73;20171;-70
2021/08/28 06:22:15;;;;;;;;;;;15.90;99.90;;;;;;1957407;73;20389;-69
2021/08/28 06:24:42;;;;;;;;;;;15.90;99.90;;;;;;1945015;73;20185;-69
2021/08/28 06:27:11;;;;;;;;;;;15.90;99.90;;;;;;1956410;73;20171;-69
2021/08/28 06:29:37;;;;;;;;;;;15.90;99.90;;;;;;1956974;73;20116;-69
2021/08/28 06:32:04;;;;;;;;;;;15.90;99.90;;;;;;1957365;73;20123;-69
2021/08/28 06:34:31;;;;;;;;;;;15.90;99.90;;;;;;1949149;73;20231;-69
2021/08/28 06:36:58;;;;;;;;;;;15.90;99.90;;;;;;1917499;73;20181;-69
2021/08/28 06:39:25;;;;;;;;;;;15.90;99.90;;;;;;1917066;75;20173;-68
2021/08/28 06:41:52;;;;;;;;;;;15.90;99.90;;;;;;1916559;75;20246;-69
2021/08/28 06:44:19;;;;;;;;;;;15.90;99.90;;;;;;1917944;73;20223;-69
2021/08/28 06:46:46;;;;;;;;;;;15.80;99.90;;;;;;1917500;73;20125;-69
2021/08/28 06:49:12;;;;;;;;;;;15.80;99.90;;;;;;1932184;73;20868;-69
2021/08/28 06:51:39;;;;;;;;;;;15.80;99.90;;;;;;1949679;73;20155;-69
2021/08/28 06:54:06;;;;;;;;;;;15.80;99.90;;;;;;1950305;73;20379;-69
2021/08/28 06:56:33;;;;;;;;;;;15.90;99.90;;;;;;1917117;75;20274;-69
2021/08/28 06:59:00;;;;;;;;;;;15.90;99.90;;;;;;1956953;73;20166;-69
2021/08/28 07:01:26;;;;;;;;;;;15.90;99.90;;;;;;1957540;73;20115;-69
2021/08/28 07:03:53;;;;;;;;;;;15.90;99.90;;;;;;1957532;73;20275;-69
2021/08/28 07:06:20;;;;;;;;;;;15.80;99.90;;;;;;1920808;73;20247;-69
2021/08/28 07:08:48;;;;;;;;;;;15.80;99.90;;;;;;1925494;73;20354;-68
2021/08/28 07:11:15;;;;;;;;;;;15.80;99.90;;;;;;1948685;74;20385;-69
2021/08/28 07:13:42;;;;;;;;;;;15.80;99.90;;;;;;1949110;74;20175;-69
2021/08/28 07:16:08;;;;;;;;;;;15.80;99.90;;;;;;1953783;73;20408;-69
2021/08/28 07:18:35;;;;;;;;;;;15.90;99.90;;;;;;1957664;73;20124;-69
2021/08/28 07:21:02;;;;;;;;;;;15.90;99.90;;;;;;1929696;73;20180;-69
2021/08/28 07:23:29;;;;;;;;;;;15.90;99.90;;;;;;1917284;73;20122;-69
2021/08/28 07:25:56;;;;;;;;;;;15.90;99.90;;;;;;1943130;72;20282;-70
2021/08/28 07:28:23;;;;;;;;;;;16.00;99.90;;;;;;1940395;73;20409;-70
2021/08/28 07:30:50;;;;;;;;;;;16.00;99.90;;;;;;1935738;73;20489;-69
2021/08/28 07:33:16;;;;;;;;;;;16.00;99.90;;;;;;1939589;73;20205;-70
2021/08/28 07:35:44;;;;;;;;;;;16.00;99.90;;;;;;1926529;73;20125;-69
2021/08/28 07:38:10;;;;;;;;;;;16.10;99.90;;;;;;1917186;75;20165;-69
2021/08/28 07:40:37;;;;;;;;;;;16.10;99.90;;;;;;1914248;73;20165;-69
2021/08/28 07:43:04;;;;;;;;;;;16.10;99.90;;;;;;1940275;73;20112;-69
2021/08/28 07:45:31;;;;;;;;;;;16.20;99.90;;;;;;1951916;72;20157;-69
2021/08/28 07:47:58;;;;;;;;;;;16.30;99.90;;;;;;1924368;73;20454;-69
2021/08/28 07:50:24;;;;;;;;;;;16.20;99.90;;;;;;1927164;73;20430;-69
2021/08/28 07:52:51;;;;;;;;;;;16.30;99.90;;;;;;1937503;73;20591;-69
2021/08/28 07:55:18;;;;;;;;;;;16.30;99.90;;;;;;1949077;73;20124;-73
2021/08/28 07:57:45;;;;;;;;;;;16.30;99.90;;;;;;1924797;72;20161;-73
2021/08/28 08:00:12;;;;;;;;;;;16.30;99.90;;;;;;1919364;73;20220;-70
2021/08/28 08:02:39;;;;;;;;;;;16.30;99.90;;;;;;1933667;73;20174;-69
2021/08/28 08:05:06;;;;;;;;;;;16.40;99.90;;;;;;1944336;73;20142;-69
2021/08/28 08:07:33;;;;;;;;;;;16.40;99.90;;;;;;1942368;72;20169;-69
2021/08/28 08:10:00;;;;;;;;;;;16.40;99.90;;;;;;1920670;73;20216;-69
2021/08/28 08:12:27;;;;;;;;;;;16.40;99.90;;;;;;1931952;73;20126;-69
2021/08/28 08:14:53;;;;;;;;;;;16.40;99.90;;;;;;1920927;73;20191;-68
2021/08/28 08:17:20;;;;;;;;;;;16.50;99.90;;;;;;1939743;73;20152;-69
2021/08/28 08:19:47;;;;;;;;;;;16.40;99.90;;;;;;1915769;75;20825;-69
2021/08/28 08:22:16;;;;;;;;;;;16.50;99.90;;;;;;1928177;73;20190;-75
2021/08/28 08:24:44;;;;;;;;;;;16.50;99.90;;;;;;1931766;73;20463;-70
2021/08/28 08:27:10;;;;;;;;;;;16.50;99.90;;;;;;1937887;73;20424;-71
2021/08/28 08:29:37;;;;;;;;;;;16.50;99.90;;;;;;1935859;73;20130;-70
2021/08/28 08:32:04;;;;;;;;;;;16.60;99.90;;;;;;1939859;73;20210;-70
2021/08/28 08:34:31;;;;;;;;;;;16.60;99.90;;;;;;1917642;73;20425;-69
2021/08/28 08:36:58;;;;;;;;;;;16.70;99.90;;;;;;1919444;73;20176;-69
2021/08/28 08:39:25;;;;;;;;;;;16.60;99.90;;;;;;1922948;73;20176;-69
2021/08/28 08:41:52;;;;;;;;;;;16.60;99.90;;;;;;1946636;73;20873;-69
2021/08/28 08:44:20;;;;;;;;;;;16.60;99.90;;;;;;1928623;73;20215;-71
2021/08/28 08:46:48;;;;;;;;;;;16.50;99.90;;;;;;1919742;73;20173;-71
2021/08/28 08:49:15;;;;;;;;;;;16.60;99.90;;;;;;1918880;73;20122;-76
2021/08/28 08:51:42;;;;;;;;;;;16.50;99.90;;;;;;1927359;73;20128;-72
2021/08/28 08:54:09;;;;;;;;;;;16.50;99.90;;;;;;1935020;73;20558;-71
2021/08/28 08:56:36;;;;;;;;;;;16.50;99.90;;;;;;1926960;73;20138;-75
2021/08/28 08:59:03;;;;;;;;;;;16.50;99.90;;;;;;1932716;73;20495;-70
2021/08/28 09:01:30;;;;;;;;;;;16.50;99.90;;;;;;1935573;73;20196;-72
2021/08/28 09:03:57;;;;;;;;;;;16.50;99.90;;;;;;1927795;73;20184;-71
2021/08/28 09:06:24;;;;;;;;;;;16.50;99.90;;;;;;1948445;73;20386;-70
2021/08/28 09:08:51;;;;;;;;;;;16.50;99.90;;;;;;1916947;75;20203;-69
2021/08/28 09:11:25;;;;;;;;;;;16.60;99.90;;;;;;1948321;73;20214;-67
2021/08/28 09:13:54;;;;;;;;;;;16.60;99.90;;;;;;1935788;73;20608;-70
2021/08/28 09:16:33;;;;;;;;;;;16.60;99.90;;;;;;1923602;73;20217;-70
2021/08/28 09:19:00;;;;;;;;;;;16.60;99.90;;;;;;1950953;73;20176;-71
2021/08/28 09:21:30;;;;;;;;;;;16.60;99.90;;;;;;1939825;73;20160;-71
2021/08/28 09:24:04;;;;;;;;;;;16.70;99.90;;;;;;1930803;73;20151;-69
2021/08/28 09:26:36;;;;;;;;;;;16.60;99.90;;;;;;1945034;73;20175;-68
2021/08/28 09:29:03;;;;;;;;;;;16.60;99.90;;;;;;1942916;73;20185;-68
2021/08/28 09:31:44;;;;;;;;;;;16.60;99.90;;;;;;1927690;73;20192;-68
2021/08/28 09:34:15;;;;;;;;;;;16.60;99.90;;;;;;1939394;73;20964;-69
2021/08/28 09:36:42;;;;;;;;;;;16.60;99.90;;;;;;1926625;72;20206;-68
2021/08/28 09:39:09;;;;;;;;;;;16.50;99.90;;;;;;1937321;73;20122;-70
2021/08/28 09:41:36;;;;;;;;;;;16.50;99.90;;;;;;1930572;73;20178;-69
2021/08/28 09:44:06;;;;;;;;;;;16.50;99.90;;;;;;1943188;73;20167;-69
2021/08/28 09:46:33;;;;;;;;;;;16.50;99.90;;;;;;1917205;75;20234;-69
2021/08/28 09:49:01;;;;;;;;;;;16.50;99.90;;;;;;1918346;73;20169;-69
2021/08/28 09:51:29;;;;;;;;;;;16.50;99.90;;;;;;1917127;75;20118;-69
2021/08/28 09:54:00;;;;;;;;;;;16.60;99.90;;;;;;1913910;75;20169;-68
2021/08/28 09:56:29;;;;;;;;;;;16.50;99.90;;;;;;1917291;75;20180;-68
2021/08/28 09:58:56;;;;;;;;;;;16.50;99.90;;;;;;1917938;73;20188;-68
2021/08/28 10:01:24;;;;;;;;;;;16.60;99.90;;;;;;1917023;74;20177;-68
2021/08/28 10:04:00;;;;;;;;;;;16.50;99.90;;;;;;1950538;73;20159;-68
2021/08/28 10:06:27;;;;;;;;;;;16.60;99.90;;;;;;1951347;73;20155;-68
2021/08/28 10:08:54;;;;;;;;;;;16.60;99.90;;;;;;1944548;73;20129;-68
2021/08/28 10:11:22;;;;;;;;;;;16.60;99.90;;;;;;1917213;75;20165;-68
2021/08/28 10:13:49;;;;;;;;;;;16.60;99.90;;;;;;1917143;75;20173;-68
2021/08/28 10:16:16;;;;;;;;;;;16.70;99.90;;;;;;1936155;73;20119;-68
2021/08/28 10:18:47;;;;;;;;;;;16.70;99.90;;;;;;1944999;73;20528;-68
2021/08/28 10:21:14;;;;;;;;;;;16.60;99.90;;;;;;1957696;73;20175;-68
2021/08/28 10:23:41;;;;;;;;;;;16.60;99.90;;;;;;1957811;73;20123;-68
2021/08/28 10:26:09;;;;;;;;;;;16.50;99.90;;;;;;1934236;73;20130;-68
2021/08/28 10:28:38;;;;;;;;;;;16.60;99.90;;;;;;1919378;73;20118;-68
2021/08/28 10:31:06;;;;;;;;;;;16.60;99.90;;;;;;1956011;73;20123;-68
2021/08/28 10:33:32;;;;;;;;;;;16.60;99.90;;;;;;1958029;73;20116;-68
2021/08/28 10:35:59;;;;;;;;;;;16.60;99.90;;;;;;1958168;73;20201;-68
2021/08/28 10:38:27;;;;;;;;;;;16.60;99.90;;;;;;1957963;73;20108;-68
2021/08/28 10:40:55;;;;;;;;;;;16.60;99.90;;;;;;1921801;73;20231;-68
2021/08/28 10:43:22;;;;;;;;;;;16.60;99.90;;;;;;1958085;73;20174;-68
2021/08/28 10:45:49;;;;;;;;;;;16.50;99.90;;;;;;1957729;73;20196;-68
2021/08/28 10:48:16;;;;;;;;;;;16.50;99.90;;;;;;1958127;73;20171;-68
2021/08/28 10:50:44;;;;;;;;;;;16.60;99.90;;;;;;1921215;73;20448;-68
2021/08/28 10:53:11;;;;;;;;;;;16.50;99.90;;;;;;1917919;73;20232;-68
2021/08/28 10:55:40;;;;;;;;;;;16.60;99.90;;;;;;1917330;75;20161;-68
2021/08/28 10:58:16;;;;;;;;;;;16.60;99.90;;;;;;1917363;75;20153;-68
2021/08/28 11:00:44;;;;;;;;;;;16.60;99.90;;;;;;1946878;73;20175;-69
2021/08/28 11:03:31;;;;;;;;;;;16.60;99.90;;;;;;1947217;73;20151;-69
2021/08/28 11:06:22;;;;;;;;;;;16.60;99.90;;;;;;1857136;77;20178;-70
2021/08/28 11:08:56;;;;;;;;;;;16.60;99.90;;;;;;1842437;77;20183;-70
2021/08/28 11:11:26;;;;;;;;;;;16.60;99.90;;;;;;1852561;77;20185;-69
2021/08/28 11:13:55;;;;;;;;;;;16.70;99.90;;;;;;1833243;77;20208;-70
2021/08/28 11:16:42;;;;;;;;;;;16.80;99.90;;;;;;1824378;77;20216;-71
2021/08/28 11:19:22;;;;;;;;;;;17.10;99.90;;;;;;1808663;78;20298;-70
2021/08/28 11:21:49;;;;;;;;;;;17.20;99.90;;;;;;1801279;78;20250;-69
2021/08/28 11:24:17;;;;;;;;;;;17.40;99.90;;;;;;1814947;77;20109;-70
2021/08/28 11:26:45;;;;;;;;;;;17.60;99.90;;;;;;1815084;78;20195;-70
2021/08/28 11:29:19;;;;;;;;;;;17.70;99.90;;;;;;1806110;78;20477;-69
2021/08/28 11:31:48;;;;;;;;;;;17.80;99.90;;;;;;1801532;78;20240;-68
2021/08/28 11:34:16;;;;;;;;;;;17.80;99.90;;;;;;1812074;78;20235;-70
2021/08/28 11:36:43;;;;;;;;;;;17.80;99.90;;;;;;1819901;78;20184;-69
2021/08/28 11:39:11;;;;;;;;;;;17.80;99.90;;;;;;1809471;78;20266;-71
2021/08/28 11:41:38;;;;;;;;;;;17.70;99.90;;;;;;1801733;78;20200;-70
2021/08/28 11:44:06;;;;;;;;;;;17.70;99.90;;;;;;1810061;78;20217;-72
2021/08/28 11:46:33;;;;;;;;;;;17.70;99.90;;;;;;1815559;78;20217;-69
2021/08/28 11:49:00;;;;;;;;;;;17.60;99.90;;;;;;1813555;77;20192;-70
2021/08/28 11:51:27;;;;;;;;;;;17.50;99.90;;;;;;1827108;78;20290;-71
2021/08/28 11:53:55;;;;;;;;;;;17.50;99.90;;;;;;1825528;78;20302;-69
2021/08/28 11:56:23;;;;;;;;;;;17.50;99.90;;;;;;1828805;77;20177;-71
2021/08/28 11:58:59;;;;;;;;;;;17.40;99.90;;;;;;1828801;78;20180;-70
2021/08/28 12:01:26;;;;;;;;;;;17.30;99.90;;;;;;1819179;77;20245;-70
2021/08/28 12:03:53;;;;;;;;;;;17.20;99.90;;;;;;1823274;77;20445;-71
2021/08/28 12:06:22;;;;;;;;;;;17.10;99.90;;;;;;1816882;77;20215;-71
2021/08/28 12:08:49;;;;;;;;;;;17.10;99.90;;;;;;1815760;78;20198;-70
2021/08/28 12:11:16;;;;;;;;;;;17.00;99.90;;;;;;1816860;78;20556;-71
2021/08/28 12:13:47;;;;;;;;;;;17.00;99.90;;;;;;1819257;77;20291;-70
2021/08/28 12:16:25;;;;;;;;;;;17.00;99.90;;;;;;1818139;77;20468;-69
2021/08/28 12:19:08;;;;;;;;;;;17.00;99.90;;;;;;1778612;78;20192;-70
2021/08/28 12:21:39;;;;;;;;;;;17.00;99.90;;;;;;1817118;78;20246;-70
2021/08/28 12:24:16;;;;;;;;;;;17.00;99.90;;;;;;1817123;78;20455;-70
2021/08/28 12:26:45;;;;;;;;;;;17.00;99.90;;;;;;1821578;78;20310;-69
2021/08/28 12:29:11;;;;;;;;;;;17.00;99.90;;;;;;1821642;77;20149;-70
2021/08/28 12:31:38;;;;;;;;;;;17.00;99.90;;;;;;1814756;78;20161;-68
2021/08/28 12:34:21;;;;;;;;;;;17.00;99.90;;;;;;1818078;77;20333;-68
2021/08/28 12:36:48;;;;;;;;;;;17.00;99.90;;;;;;1823036;77;20198;-69
2021/08/28 12:39:15;;;;;;;;;;;17.10;99.90;;;;;;1818434;78;20204;-69
2021/08/28 12:41:42;;;;;;;;;;;17.00;99.90;;;;;;1815124;78;20137;-70
2021/08/28 12:44:10;;;;;;;;;;;17.00;99.90;;;;;;1816782;78;20208;-70
2021/08/28 12:46:42;;;;;;;;;;;17.10;99.90;;;;;;1816241;78;20236;-70
2021/08/28 12:49:10;;;;;;;;;;;17.20;99.90;;;;;;1819796;78;20435;-69
2021/08/28 12:51:37;;;;;;;;;;;17.10;99.90;;;;;;1814892;78;20182;-69
2021/08/28 12:54:04;;;;;;;;;;;17.20;99.90;;;;;;1816552;78;20273;-69
2021/08/28 12:56:31;;;;;;;;;;;17.20;99.90;;;;;;1820562;78;20240;-68
2021/08/28 12:58:58;;;;;;;;;;;17.20;99.90;;;;;;1815241;78;20208;-69
2021/08/28 13:01:25;;;;;;;;;;;17.10;99.90;;;;;;1818261;77;20193;-69
2021/08/28 13:03:52;;;;;;;;;;;17.10;99.90;;;;;;1818980;78;20216;-68
2021/08/28 13:06:25;;;;;;;;;;;17.10;99.90;;;;;;1819143;78;20254;-69
2021/08/28 13:08:52;;;;;;;;;;;17.00;99.90;;;;;;1821894;78;20218;-68
2021/08/28 13:11:19;;;;;;;;;;;17.00;99.90;;;;;;1815877;78;20217;-69
2021/08/28 13:13:54;;;;;;;;;;;16.90;99.90;;;;;;1815103;78;20247;-68
2021/08/28 13:16:20;;;;;;;;;;;16.80;99.90;;;;;;1820068;78;21040;-69
2021/08/28 13:18:49;;;;;;;;;;;16.80;99.90;;;;;;1816712;78;20138;-69
2021/08/28 13:21:17;;;;;;;;;;;16.80;99.90;;;;;;1811589;78;21090;-70
2021/08/28 13:23:44;;;;;;;;;;;16.80;99.90;;;;;;1821077;77;20134;-69
2021/08/28 13:26:11;;;;;;;;;;;16.70;99.90;;;;;;1819890;78;20516;-69
2021/08/28 13:28:39;;;;;;;;;;;16.80;99.90;;;;;;1820219;77;20199;-70
2021/08/28 13:31:19;;;;;;;;;;;16.80;99.90;;;;;;1821463;78;20203;-70
2021/08/28 13:33:59;;;;;;;;;;;16.80;99.90;;;;;;1819285;78;20266;-72
2021/08/28 13:36:31;;;;;;;;;;;16.80;99.90;;;;;;1819525;78;20151;-68
2021/08/28 13:38:55;;;;;;;;;;;16.80;99.90;;;;;;1821054;78;20300;-69
2021/08/28 13:41:22;;;;;;;;;;;16.80;99.90;;;;;;1818371;78;20182;-69
2021/08/28 13:43:50;;;;;;;;;;;16.80;99.90;;;;;;1815110;78;20199;-69
2021/08/28 13:46:17;;;;;;;;;;;16.80;99.90;;;;;;1823143;77;20204;-70
2021/08/28 13:48:44;;;;;;;;;;;16.90;99.90;;;;;;1818670;77;20235;-69
2021/08/28 13:51:11;;;;;;;;;;;16.90;99.90;;;;;;1818110;78;20263;-71
2021/08/28 13:53:38;;;;;;;;;;;16.90;99.90;;;;;;1820463;78;20242;-71
2021/08/28 13:56:05;;;;;;;;;;;16.90;99.90;;;;;;1820463;78;20155;-72
2021/08/28 13:58:31;;;;;;;;;;;16.90;99.90;;;;;;1815235;78;20216;-80
2021/08/28 14:00:58;;;;;;;;;;;16.90;99.90;;;;;;1822015;77;20509;-74
2021/08/28 14:16:45;;;;;;;;;;;16.90;99.90;;;;;;1911057;73;20250;-68
2021/08/28 14:19:12;;;;;;;;;;;16.90;99.90;;;;;;1891000;70;20335;-73
2021/08/28 14:21:40;;;;;;;;;;;16.80;99.90;;;;;;1922766;73;20246;-87
2021/08/28 14:24:07;;;;;;;;;;;16.90;99.90;;;;;;1922816;73;20271;-87
2021/08/28 14:26:33;;;;;;;;;;;16.90;99.90;;;;;;1920389;72;20253;-86
2021/08/28 14:29:01;;;;;;;;;;;16.90;99.90;;;;;;1910766;73;20416;-73
2021/08/28 14:31:28;;;;;;;;;;;16.80;99.90;;;;;;1888537;74;20492;-73
2021/08/28 14:33:55;;;;;;;;;;;16.80;99.90;;;;;;1889316;74;20133;-73